Rechercher aéroport 
image banner adimage banner adimage banner ad
image banner ad

D63 - Dinsmore

Situé à Dinsmore, United States

ICAO - D63, IATA -

Données fournies par Airmate  

Information générale

Coordonnées: N40°29'31" W123°35'54"
Élévation : 2375 feet MSL.
Variation magnétique : 17° East
Voir autres Aéroports à California

Données opérationnelles

Special qualification required
Heure actuelle UTC:
Heure actuelle locale:
Météo à : KFOT - Rohnerville ( 46 km )
METAR: KFOT 251515Z AUTO 00000KT M1/4SM OVC002 11/11 A2999 RMK AO1
Voir NOTAMs / SUP AIP / TFR affectant cet aéroport [VIEW]
Fréquences de communication: [VIEW]

Pistes:

Identifiant RWYQFULongueur (ft)Largeur (ft)SurfaceLDA (ft)
09251048ASPH
27251048ASPH

Coordonnées de l'aéroport

Adresse: Dinsmore United States

Vue satellite de D63